Time;durP1;ratioP1;P1;durP2;ratioP2;P2;SDS_P1;SDS_P2;PMS_P1;PMS_P2;Temp;Humidity;BMP_temperature;BMP_pressure;BME280_temperature;BME280_humidity;BME280_pressure;Samples;Min_cycle;Max_cycle;Signal;HPM_P1;HPM_P2
2023/02/14 00:02:12;;;;;;;;;;;19.50;99.90;;;;;;5057315;28;19935;-63
2023/02/14 00:04:42;;;;;;;;;;;19.60;99.90;;;;;;5068705;28;19919;-63
2023/02/14 00:07:11;;;;;;;;;;;19.60;99.90;;;;;;5061971;28;20411;-61
2023/02/14 00:09:38;;;;;;;;;;;19.70;99.90;;;;;;5061192;28;19917;-63
2023/02/14 00:12:04;;;;;;;;;;;19.70;99.90;;;;;;5062164;28;19924;-62
2023/02/14 00:17:15;;;;;;;;;;;19.90;99.90;;;;;;5063401;28;19990;-61
2023/02/14 00:19:41;;;;;;;;;;;20.10;99.90;;;;;;5063133;28;19955;-63
2023/02/14 00:22:08;;;;;;;;;;;20.30;99.90;;;;;;5059822;28;19904;-63
2023/02/14 00:24:34;;;;;;;;;;;20.60;99.90;;;;;;5063038;28;19958;-63
2023/02/14 00:27:00;;;;;;;;;;;20.90;99.90;;;;;;5063419;28;19927;-63
2023/02/14 00:29:29;;;;;;;;;;;21.10;99.90;;;;;;5065510;28;20110;-61
2023/02/14 00:31:55;;;;;;;;;;;21.40;99.90;;;;;;5063976;28;20008;-62
2023/02/14 00:34:22;;;;;;;;;;;21.60;99.90;;;;;;5062079;28;19908;-63
2023/02/14 00:36:48;;;;;;;;;;;21.70;99.90;;;;;;5063885;28;20584;-61
2023/02/14 00:39:15;;;;;;;;;;;21.90;99.90;;;;;;5045375;28;19996;-60
2023/02/14 00:41:41;;;;;;;;;;;22.00;99.90;;;;;;5061512;28;20071;-61
2023/02/14 00:44:08;;;;;;;;;;;22.40;99.90;;;;;;5061944;28;19904;-60
2023/02/14 00:46:35;;;;;;;;;;;22.60;99.90;;;;;;5058669;28;20002;-63
2023/02/14 00:49:01;;;;;;;;;;;22.70;99.90;;;;;;5063818;28;19913;-61
2023/02/14 00:51:28;;;;;;;;;;;22.90;99.90;;;;;;5060136;28;19908;-61
2023/02/14 00:53:55;;;;;;;;;;;22.90;99.90;;;;;;5063870;28;19908;-63
2023/02/14 00:56:21;;;;;;;;;;;22.90;99.90;;;;;;5058039;28;19916;-63
2023/02/14 00:58:47;;;;;;;;;;;22.90;99.90;;;;;;5058161;28;20007;-63
2023/02/14 01:01:14;;;;;;;;;;;22.90;99.90;;;;;;5059210;28;19909;-61
2023/02/14 01:03:41;;;;;;;;;;;22.80;99.90;;;;;;5060652;28;19966;-62
2023/02/14 01:06:08;;;;;;;;;;;22.70;99.90;;;;;;5067362;28;20016;-61
2023/02/14 01:08:34;;;;;;;;;;;22.50;99.90;;;;;;5056367;28;19905;-61
2023/02/14 01:11:10;;;;;;;;;;;22.30;99.90;;;;;;5059399;28;20008;-61
2023/02/14 01:13:36;;;;;;;;;;;22.00;99.90;;;;;;5057082;28;20007;-64
2023/02/14 01:16:07;;;;;;;;;;;21.80;99.90;;;;;;5051952;28;19958;-61
2023/02/14 01:18:34;;;;;;;;;;;21.60;99.90;;;;;;5058700;28;20393;-61
2023/02/14 01:21:11;;;;;;;;;;;21.50;99.90;;;;;;5060653;28;19955;-61
2023/02/14 01:23:37;;;;;;;;;;;21.60;99.90;;;;;;5058121;28;20348;-63
2023/02/14 01:26:04;;;;;;;;;;;21.60;99.90;;;;;;5058586;28;19920;-64
2023/02/14 01:28:31;;;;;;;;;;;21.70;99.90;;;;;;5057359;28;19974;-61
2023/02/14 01:30:57;;;;;;;;;;;21.60;99.90;;;;;;5059110;28;20007;-61
2023/02/14 01:33:23;;;;;;;;;;;21.50;99.90;;;;;;5051923;28;20268;-62
2023/02/14 01:35:50;;;;;;;;;;;21.50;99.90;;;;;;5066524;28;19950;-61
2023/02/14 01:38:16;;;;;;;;;;;21.40;99.90;;;;;;5064013;28;19908;-61
2023/02/14 01:40:43;;;;;;;;;;;21.20;99.90;;;;;;5061298;28;19954;-62
2023/02/14 01:43:14;;;;;;;;;;;21.10;99.90;;;;;;5056089;28;20427;-65
2023/02/14 01:45:40;;;;;;;;;;;21.00;99.90;;;;;;5053905;28;19915;-62
2023/02/14 01:48:08;;;;;;;;;;;20.90;99.90;;;;;;5061198;28;20373;-65
2023/02/14 01:50:36;;;;;;;;;;;20.60;99.90;;;;;;5061506;28;19916;-65
2023/02/14 01:53:04;;;;;;;;;;;20.50;99.90;;;;;;5060527;28;19908;-62
2023/02/14 01:55:32;;;;;;;;;;;20.30;99.90;;;;;;5058332;28;20315;-62
2023/02/14 01:58:10;;;;;;;;;;;20.20;99.90;;;;;;5060640;28;19991;-61
2023/02/14 02:00:56;;;;;;;;;;;20.10;99.90;;;;;;5055939;28;19917;-61
2023/02/14 02:03:25;;;;;;;;;;;20.00;99.90;;;;;;5056341;28;19939;-62
2023/02/14 02:05:55;;;;;;;;;;;20.00;99.90;;;;;;5053151;28;20026;-62
2023/02/14 02:08:21;;;;;;;;;;;19.90;99.90;;;;;;5055544;28;19915;-65
2023/02/14 02:10:47;;;;;;;;;;;19.90;99.90;;;;;;5061573;28;19917;-61
2023/02/14 02:13:16;;;;;;;;;;;19.90;99.90;;;;;;5056974;28;19930;-67
2023/02/14 02:15:50;;;;;;;;;;;20.00;99.90;;;;;;5056016;28;19909;-62
2023/02/14 02:18:16;;;;;;;;;;;20.20;99.90;;;;;;5051512;28;19905;-65
2023/02/14 02:21:05;;;;;;;;;;;20.20;99.90;;;;;;4359633;28;10000673;-65
2023/02/14 02:23:44;;;;;;;;;;;20.20;99.90;;;;;;5052172;28;19939;-64
2023/02/14 02:26:25;;;;;;;;;;;20.30;99.90;;;;;;5048481;28;19916;-65
2023/02/14 02:29:10;;;;;;;;;;;20.40;99.90;;;;;;5054269;28;19912;-66
2023/02/14 02:32:09;;;;;;;;;;;20.40;99.90;;;;;;5050646;28;20418;-61
2023/02/14 02:34:35;;;;;;;;;;;20.40;99.90;;;;;;4979888;28;19906;-61
2023/02/14 02:37:07;;;;;;;;;;;20.30;99.90;;;;;;4982621;28;20260;-63
2023/02/14 02:39:52;;;;;;;;;;;20.30;99.90;;;;;;4983078;28;20317;-67
2023/02/14 02:42:18;;;;;;;;;;;20.30;99.90;;;;;;4983101;28;19918;-63
2023/02/14 02:45:02;;;;;;;;;;;20.30;99.90;;;;;;4982527;28;19914;-62
2023/02/14 02:47:40;;;;;;;;;;;20.30;99.90;;;;;;4982457;28;19918;-61
2023/02/14 02:53:26;;;;;;;;;;;20.50;99.90;;;;;;4980028;28;19920;-66
2023/02/14 02:58:43;;;;;;;;;;;20.70;99.90;;;;;;4935618;28;19926;-66
2023/02/14 03:01:13;;;;;;;;;;;21.00;99.90;;;;;;4948668;28;19921;-67
2023/02/14 03:06:24;;;;;;;;;;;21.40;99.90;;;;;;4955084;28;19968;-61
2023/02/14 03:08:51;;;;;;;;;;;21.50;99.90;;;;;;4947306;28;20382;-62
2023/02/14 03:11:17;;;;;;;;;;;21.60;99.90;;;;;;5000025;28;19909;-62
2023/02/14 03:13:55;;;;;;;;;;;21.60;99.90;;;;;;5002400;28;19920;-65
2023/02/14 03:16:40;;;;;;;;;;;21.70;99.90;;;;;;5002272;28;20425;-60
2023/02/14 03:19:29;;;;;;;;;;;21.70;99.90;;;;;;4996158;28;20354;-60
2023/02/14 03:21:59;;;;;;;;;;;21.70;99.90;;;;;;4992541;28;20354;-61
2023/02/14 03:24:37;;;;;;;;;;;21.70;99.90;;;;;;5002807;28;19916;-61
2023/02/14 03:27:06;;;;;;;;;;;21.60;99.90;;;;;;5002784;28;19920;-60
2023/02/14 03:29:32;;;;;;;;;;;21.40;99.90;;;;;;5019048;28;19927;-60
2023/02/14 03:32:18;;;;;;;;;;;21.30;99.90;;;;;;5055682;28;20443;-66
2023/02/14 03:34:50;;;;;;;;;;;21.30;99.90;;;;;;5052611;28;19908;-61
2023/02/14 03:37:21;;;;;;;;;;;21.20;99.90;;;;;;5051801;28;19959;-67
2023/02/14 03:39:54;;;;;;;;;;;21.10;99.90;;;;;;5060553;28;19912;-61
2023/02/14 03:42:29;;;;;;;;;;;21.10;99.90;;;;;;5052153;28;19943;-66
2023/02/14 03:44:57;;;;;;;;;;;20.90;99.90;;;;;;5052625;28;19970;-65
2023/02/14 03:47:26;;;;;;;;;;;20.80;99.90;;;;;;5051030;28;19948;-61
2023/02/14 03:49:55;;;;;;;;;;;20.70;99.90;;;;;;5057860;28;19983;-61
2023/02/14 03:52:23;;;;;;;;;;;20.60;99.90;;;;;;5052960;28;20015;-62
2023/02/14 03:54:51;;;;;;;;;;;20.60;99.90;;;;;;5054575;28;20007;-62
2023/02/14 03:57:17;;;;;;;;;;;20.60;99.90;;;;;;5049977;28;20134;-62
2023/02/14 03:59:43;;;;;;;;;;;20.50;99.90;;;;;;5054377;28;19967;-62
2023/02/14 04:02:15;;;;;;;;;;;20.40;99.90;;;;;;5054786;28;19915;-63
2023/02/14 04:04:43;;;;;;;;;;;20.30;99.90;;;;;;5059587;28;20323;-61
2023/02/14 04:07:10;;;;;;;;;;;20.30;99.90;;;;;;5052855;28;20092;-65
2023/02/14 04:09:36;;;;;;;;;;;20.30;99.90;;;;;;5056702;28;19931;-62
2023/02/14 04:12:03;;;;;;;;;;;20.20;99.90;;;;;;5054319;28;19912;-62
2023/02/14 04:14:29;;;;;;;;;;;20.20;99.90;;;;;;5059429;28;19908;-62
2023/02/14 04:19:40;;;;;;;;;;;20.30;99.90;;;;;;5058725;28;19919;-65
2023/02/14 04:22:06;;;;;;;;;;;20.20;99.90;;;;;;5055629;28;19908;-64
2023/02/14 04:24:33;;;;;;;;;;;20.10;99.90;;;;;;5060799;28;19904;-62
2023/02/14 04:27:11;;;;;;;;;;;20.00;99.90;;;;;;5057063;28;19919;-62
2023/02/14 04:29:42;;;;;;;;;;;19.90;99.90;;;;;;5060499;28;20421;-62
2023/02/14 04:32:09;;;;;;;;;;;19.90;99.90;;;;;;5057507;28;20357;-61
2023/02/14 04:34:36;;;;;;;;;;;19.90;99.90;;;;;;5056615;28;19912;-61
2023/02/14 04:37:03;;;;;;;;;;;19.90;99.90;;;;;;5057466;28;19908;-61
2023/02/14 04:39:29;;;;;;;;;;;20.10;99.90;;;;;;5060978;28;19905;-61
2023/02/14 04:41:56;;;;;;;;;;;20.10;99.90;;;;;;5053770;28;19927;-65
2023/02/14 04:44:22;;;;;;;;;;;20.10;99.90;;;;;;5060103;28;20686;-62
2023/02/14 04:46:48;;;;;;;;;;;20.10;99.90;;;;;;5063844;28;19944;-60
2023/02/14 04:49:15;;;;;;;;;;;20.10;99.90;;;;;;5058880;28;19954;-64
2023/02/14 04:51:42;;;;;;;;;;;20.30;99.90;;;;;;5059493;28;20369;-63
2023/02/14 04:54:08;;;;;;;;;;;20.30;99.90;;;;;;5055534;28;20280;-64
2023/02/14 04:56:34;;;;;;;;;;;20.50;99.90;;;;;;5057983;28;19912;-61
2023/02/14 04:59:01;;;;;;;;;;;20.60;99.90;;;;;;5055432;28;19927;-60
2023/02/14 05:01:27;;;;;;;;;;;20.60;99.90;;;;;;5055041;28;20286;-61
2023/02/14 05:03:54;;;;;;;;;;;20.60;99.90;;;;;;5058181;28;20019;-63
2023/02/14 05:06:20;;;;;;;;;;;20.80;99.90;;;;;;5055772;28;19921;-62
2023/02/14 05:08:46;;;;;;;;;;;20.90;99.90;;;;;;5052416;28;20275;-60
2023/02/14 05:11:13;;;;;;;;;;;21.10;99.90;;;;;;5060119;28;20356;-60
2023/02/14 05:13:40;;;;;;;;;;;21.50;99.90;;;;;;5057770;28;19919;-63
2023/02/14 05:16:06;;;;;;;;;;;21.60;99.90;;;;;;5051178;28;19909;-63
2023/02/14 05:18:32;;;;;;;;;;;21.80;99.90;;;;;;5055046;28;19912;-62
2023/02/14 05:20:59;;;;;;;;;;;22.00;99.90;;;;;;5056155;28;19916;-62
2023/02/14 05:23:25;;;;;;;;;;;22.20;99.90;;;;;;5056800;28;19934;-61
2023/02/14 05:25:52;;;;;;;;;;;22.30;99.90;;;;;;5055476;28;19916;-60
2023/02/14 05:28:18;;;;;;;;;;;22.50;99.90;;;;;;5057694;28;20284;-62
2023/02/14 05:30:45;;;;;;;;;;;22.70;99.90;;;;;;5055810;28;20419;-61
2023/02/14 05:33:13;;;;;;;;;;;22.80;99.90;;;;;;5056759;28;19913;-64
2023/02/14 05:35:39;;;;;;;;;;;22.80;99.90;;;;;;5052272;28;19916;-63
2023/02/14 05:38:05;;;;;;;;;;;23.00;99.90;;;;;;5060182;28;19971;-62
2023/02/14 05:40:32;;;;;;;;;;;23.30;99.90;;;;;;5055407;28;19924;-62
2023/02/14 05:42:58;;;;;;;;;;;23.50;99.90;;;;;;5054552;28;19909;-64
2023/02/14 05:45:25;;;;;;;;;;;23.70;99.90;;;;;;5052955;28;20307;-69
2023/02/14 05:47:51;;;;;;;;;;;23.80;99.90;;;;;;5057341;28;19916;-65
2023/02/14 05:50:18;;;;;;;;;;;24.30;99.90;;;;;;5052902;28;19916;-62
2023/02/14 05:52:44;;;;;;;;;;;24.80;99.90;;;;;;5054554;28;19916;-63
2023/02/14 05:55:11;;;;;;;;;;;25.40;99.90;;;;;;5053848;28;19919;-64
2023/02/14 05:57:37;;;;;;;;;;;25.80;99.90;;;;;;5059406;28;19956;-62
2023/02/14 06:00:05;;;;;;;;;;;25.90;99.90;;;;;;5055204;28;20375;-64
2023/02/14 06:02:32;;;;;;;;;;;25.90;99.90;;;;;;5034536;28;19913;-63
2023/02/14 06:04:58;;;;;;;;;;;25.60;99.90;;;;;;5056095;28;19959;-64
2023/02/14 06:07:25;;;;;;;;;;;25.20;99.90;;;;;;5055544;28;19920;-64
2023/02/14 06:09:51;;;;;;;;;;;24.80;99.90;;;;;;5054726;28;20312;-61
2023/02/14 06:12:17;;;;;;;;;;;24.90;99.90;;;;;;5048852;28;19923;-64
2023/02/14 06:14:44;;;;;;;;;;;24.70;99.90;;;;;;5051341;28;20318;-61
2023/02/14 06:17:10;;;;;;;;;;;24.50;99.90;;;;;;5051704;28;20485;-65
2023/02/14 06:19:36;;;;;;;;;;;24.40;99.90;;;;;;5051078;28;19927;-65
2023/02/14 06:22:03;;;;;;;;;;;24.20;99.90;;;;;;5052443;28;19917;-66
2023/02/14 06:24:29;;;;;;;;;;;24.30;99.90;;;;;;5056610;28;20052;-66
2023/02/14 06:26:56;;;;;;;;;;;24.30;99.90;;;;;;5053046;28;20384;-62
2023/02/14 06:29:22;;;;;;;;;;;24.20;99.90;;;;;;5056253;28;19923;-66
2023/02/14 06:31:48;;;;;;;;;;;24.00;99.90;;;;;;5053929;28;19912;-62
2023/02/14 06:34:15;;;;;;;;;;;23.70;99.90;;;;;;5051990;28;20357;-65
2023/02/14 06:36:41;;;;;;;;;;;23.90;99.90;;;;;;5051032;28;19916;-66
2023/02/14 06:39:07;;;;;;;;;;;24.10;99.90;;;;;;5052448;28;19912;-62
2023/02/14 06:41:34;;;;;;;;;;;24.30;99.90;;;;;;5047065;28;19939;-67
2023/02/14 06:44:00;;;;;;;;;;;24.70;99.90;;;;;;5045588;28;20314;-67
2023/02/14 06:46:26;;;;;;;;;;;25.00;99.90;;;;;;5044998;28;20322;-68
2023/02/14 06:48:53;;;;;;;;;;;24.90;99.90;;;;;;5047490;28;19908;-62
2023/02/14 06:51:19;;;;;;;;;;;24.70;99.90;;;;;;5047781;28;20544;-69
2023/02/14 06:53:46;;;;;;;;;;;24.60;99.90;;;;;;5058038;28;20414;-69
2023/02/14 06:56:12;;;;;;;;;;;24.60;99.90;;;;;;5048081;28;19919;-62
2023/02/14 06:58:38;;;;;;;;;;;24.60;99.90;;;;;;5048354;28;20169;-66
2023/02/14 07:01:05;;;;;;;;;;;24.40;99.90;;;;;;5048471;28;20003;-65
2023/02/14 07:03:31;;;;;;;;;;;24.30;99.90;;;;;;5045475;28;20358;-62
2023/02/14 07:05:57;;;;;;;;;;;24.60;99.90;;;;;;5053101;28;19930;-62
2023/02/14 07:08:24;;;;;;;;;;;25.60;99.90;;;;;;5053724;28;19919;-62
2023/02/14 07:10:50;;;;;;;;;;;25.70;99.90;;;;;;5051760;28;19927;-66
2023/02/14 07:13:16;;;;;;;;;;;25.20;99.90;;;;;;5045608;28;19915;-63
2023/02/14 07:15:43;;;;;;;;;;;24.80;99.90;;;;;;5047304;28;19912;-61
2023/02/14 07:18:10;;;;;;;;;;;24.60;99.90;;;;;;5046875;28;20626;-67
2023/02/14 07:20:36;;;;;;;;;;;24.40;99.90;;;;;;5056761;28;19920;-62
2023/02/14 07:23:03;;;;;;;;;;;24.20;99.90;;;;;;5052566;28;19919;-65
2023/02/14 07:25:29;;;;;;;;;;;24.20;99.90;;;;;;5048698;28;19917;-64
2023/02/14 07:27:56;;;;;;;;;;;24.20;99.90;;;;;;5054996;28;19924;-61
2023/02/14 07:30:22;;;;;;;;;;;24.00;99.90;;;;;;5049605;28;19916;-61
2023/02/14 07:32:48;;;;;;;;;;;23.80;99.90;;;;;;5050714;28;19981;-66
2023/02/14 07:35:15;;;;;;;;;;;23.70;99.90;;;;;;5049183;28;19908;-66
2023/02/14 07:37:41;;;;;;;;;;;23.50;99.90;;;;;;5047221;28;19916;-61
2023/02/14 07:40:07;;;;;;;;;;;23.30;99.90;;;;;;5050436;28;19916;-60
2023/02/14 07:42:34;;;;;;;;;;;23.20;99.90;;;;;;5052339;28;19919;-65
2023/02/14 07:45:00;;;;;;;;;;;23.10;99.90;;;;;;5045979;28;19966;-61
2023/02/14 07:47:26;;;;;;;;;;;23.00;99.90;;;;;;5054298;28;19916;-61
2023/02/14 07:49:53;;;;;;;;;;;22.80;99.90;;;;;;5049932;28;20027;-66
2023/02/14 07:52:19;;;;;;;;;;;22.70;99.90;;;;;;5052988;28;19909;-61
2023/02/14 07:54:46;;;;;;;;;;;22.90;99.90;;;;;;5056459;28;19970;-65
2023/02/14 07:57:12;;;;;;;;;;;23.40;99.90;;;;;;5048854;28;19915;-65
2023/02/14 07:59:38;;;;;;;;;;;23.60;99.90;;;;;;5054146;28;20455;-65
2023/02/14 08:02:05;;;;;;;;;;;23.70;99.90;;;;;;5054458;28;19914;-66
2023/02/14 08:04:31;;;;;;;;;;;24.10;99.90;;;;;;5055813;28;19934;-66
2023/02/14 08:06:58;;;;;;;;;;;24.30;99.90;;;;;;5049231;28;19924;-65
2023/02/14 08:09:24;;;;;;;;;;;24.50;99.90;;;;;;5047176;28;19963;-66
2023/02/14 08:14:36;;;;;;;;;;;24.80;99.90;;;;;;5044838;28;19919;-65
2023/02/14 08:17:02;;;;;;;;;;;24.80;99.90;;;;;;5051928;28;19917;-61
2023/02/14 08:19:29;;;;;;;;;;;24.40;99.90;;;;;;5054099;28;19908;-61
2023/02/14 08:21:55;;;;;;;;;;;24.00;99.90;;;;;;5049342;28;19912;-61
2023/02/14 08:24:22;;;;;;;;;;;23.80;99.90;;;;;;5049445;28;20266;-64
2023/02/14 08:26:48;;;;;;;;;;;23.40;99.90;;;;;;5052046;28;20019;-60
2023/02/14 08:29:14;;;;;;;;;;;23.10;99.90;;;;;;5051524;28;20293;-67
2023/02/14 08:31:41;;;;;;;;;;;22.60;99.90;;;;;;5053235;28;20007;-62
2023/02/14 08:34:07;;;;;;;;;;;22.60;99.90;;;;;;5049992;28;20361;-61
2023/02/14 08:36:34;;;;;;;;;;;22.40;99.90;;;;;;5053838;28;19931;-61
2023/02/14 08:39:01;;;;;;;;;;;22.20;99.90;;;;;;5052373;28;20383;-61
2023/02/14 08:41:27;;;;;;;;;;;22.00;99.90;;;;;;5050892;28;19916;-67
2023/02/14 08:43:53;;;;;;;;;;;21.90;99.90;;;;;;5035360;28;20003;-59
2023/02/14 08:46:20;;;;;;;;;;;21.80;99.90;;;;;;5052745;28;19916;-67
2023/02/14 08:48:48;;;;;;;;;;;21.80;99.90;;;;;;5049891;28;19908;-69
2023/02/14 08:51:15;;;;;;;;;;;21.70;99.90;;;;;;5050035;28;20198;-61
2023/02/14 08:53:42;;;;;;;;;;;21.50;99.90;;;;;;5049913;28;20605;-69
2023/02/14 08:56:09;;;;;;;;;;;21.50;99.90;;;;;;5051226;28;19942;-67
2023/02/14 08:58:37;;;;;;;;;;;21.40;99.90;;;;;;5036849;28;19920;-67
2023/02/14 09:01:10;;;;;;;;;;;21.30;99.90;;;;;;5049783;28;19912;-68
2023/02/14 09:03:36;;;;;;;;;;;21.10;99.90;;;;;;5050878;28;19912;-60
2023/02/14 09:06:04;;;;;;;;;;;21.00;99.90;;;;;;5047025;28;19951;-60
2023/02/14 09:08:30;;;;;;;;;;;20.90;99.90;;;;;;5052065;28;19913;-66
2023/02/14 09:10:57;;;;;;;;;;;20.70;99.90;;;;;;5056481;28;20001;-60
2023/02/14 09:13:23;;;;;;;;;;;20.60;99.90;;;;;;5045694;28;19970;-67
2023/02/14 09:15:50;;;;;;;;;;;20.50;99.90;;;;;;5052674;28;20214;-67
2023/02/14 09:18:16;;;;;;;;;;;20.50;99.90;;;;;;5056552;28;19908;-59
2023/02/14 09:20:44;;;;;;;;;;;20.40;99.90;;;;;;5046104;28;19975;-67
2023/02/14 09:23:10;;;;;;;;;;;20.30;99.90;;;;;;5053960;28;19994;-66
2023/02/14 09:25:37;;;;;;;;;;;20.30;99.90;;;;;;5047350;28;19912;-66
2023/02/14 09:28:03;;;;;;;;;;;20.30;99.90;;;;;;5046267;28;19920;-59
2023/02/14 09:30:29;;;;;;;;;;;20.20;99.90;;;;;;5051534;28;19920;-61
2023/02/14 09:32:56;;;;;;;;;;;20.10;99.90;;;;;;5047465;28;19909;-70
2023/02/14 09:38:18;;;;;;;;;;;20.00;99.90;;;;;;5044193;28;20403;-67
2023/02/14 09:40:45;;;;;;;;;;;19.90;99.90;;;;;;5049268;28;20371;-60
2023/02/14 09:43:14;;;;;;;;;;;19.90;99.90;;;;;;5047128;28;19957;-60
2023/02/14 09:45:40;;;;;;;;;;;19.90;99.90;;;;;;5051017;28;20277;-61
2023/02/14 09:48:12;;;;;;;;;;;19.80;99.90;;;;;;5054979;28;20426;-60
2023/02/14 09:50:39;;;;;;;;;;;19.80;99.90;;;;;;5046165;28;19969;-67
2023/02/14 09:53:11;;;;;;;;;;;19.80;99.90;;;;;;5036207;28;19916;-67
2023/02/14 09:55:46;;;;;;;;;;;19.70;99.90;;;;;;5046648;28;20840;-67
2023/02/14 09:58:18;;;;;;;;;;;19.70;99.90;;;;;;5051214;22;20404;-67
2023/02/14 10:00:48;;;;;;;;;;;19.70;99.90;;;;;;5056422;28;20392;-60
2023/02/14 10:03:17;;;;;;;;;;;19.70;99.90;;;;;;5061444;28;19957;-67
2023/02/14 10:06:04;;;;;;;;;;;19.60;99.90;;;;;;5062280;28;20334;-60
2023/02/14 10:08:48;;;;;;;;;;;19.60;99.90;;;;;;4999076;28;19979;-66
2023/02/14 10:11:19;;;;;;;;;;;19.60;99.90;;;;;;5000074;28;19913;-60
2023/02/14 10:13:49;;;;;;;;;;;19.50;99.90;;;;;;5000502;28;20065;-60
2023/02/14 10:16:33;;;;;;;;;;;19.50;99.90;;;;;;4998998;28;19913;-67
2023/02/14 10:19:02;;;;;;;;;;;19.50;99.90;;;;;;5004207;28;19960;-60
2023/02/14 10:21:35;;;;;;;;;;;19.40;99.90;;;;;;4977418;28;20024;-68
2023/02/14 10:24:08;;;;;;;;;;;19.30;99.90;;;;;;4981823;28;20350;-68
2023/02/14 10:26:40;;;;;;;;;;;19.40;99.90;;;;;;4975374;28;19914;-67
2023/02/14 10:29:16;;;;;;;;;;;19.30;99.90;;;;;;4980390;28;20465;-59
2023/02/14 10:31:54;;;;;;;;;;;19.40;99.90;;;;;;4978803;28;19920;-59
2023/02/14 10:34:28;;;;;;;;;;;19.40;99.90;;;;;;4979393;28;19917;-60
2023/02/14 10:37:12;;;;;;;;;;;19.30;99.90;;;;;;4980495;28;20019;-59
2023/02/14 10:39:54;;;;;;;;;;;19.40;99.90;;;;;;4980066;28;19914;-69
2023/02/14 10:42:28;;;;;;;;;;;19.40;99.90;;;;;;4980342;28;19916;-68
2023/02/14 10:45:04;;;;;;;;;;;19.40;99.90;;;;;;4988852;28;19996;-68
2023/02/14 10:47:36;;;;;;;;;;;19.30;99.90;;;;;;5035029;28;20527;-68
2023/02/14 10:50:09;;;;;;;;;;;19.40;99.90;;;;;;5038701;28;20365;-69
2023/02/14 10:52:35;;;;;;;;;;;19.60;99.90;;;;;;5035368;28;19913;-68
2023/02/14 10:55:09;;;;;;;;;;;19.70;99.90;;;;;;5041744;28;20011;-68
2023/02/14 10:57:40;;;;;;;;;;;19.70;99.90;;;;;;5042190;28;19963;-68
2023/02/14 11:00:09;;;;;;;;;;;19.80;99.90;;;;;;5038452;28;19973;-59
2023/02/14 11:02:41;;;;;;;;;;;19.90;99.90;;;;;;5036221;28;19912;-61
2023/02/14 11:05:16;;;;;;;;;;;19.90;99.90;;;;;;5039630;28;20381;-61
2023/02/14 11:07:44;;;;;;;;;;;19.90;99.90;;;;;;5044378;28;20317;-60
2023/02/14 11:10:13;;;;;;;;;;;20.00;99.90;;;;;;5039646;28;19940;-60
2023/02/14 11:12:40;;;;;;;;;;;20.00;99.90;;;;;;5035722;28;20114;-64
2023/02/14 11:15:09;;;;;;;;;;;20.00;99.90;;;;;;5045146;28;19971;-62
2023/02/14 11:17:36;;;;;;;;;;;19.90;99.90;;;;;;5030927;28;19912;-61
2023/02/14 11:20:18;;;;;;;;;;;19.90;99.90;;;;;;5044260;28;19924;-65
2023/02/14 11:22:45;;;;;;;;;;;19.90;99.90;;;;;;5046601;28;19990;-64
2023/02/14 11:25:30;;;;;;;;;;;19.90;99.90;;;;;;5048116;28;19912;-67
2023/02/14 11:28:05;;;;;;;;;;;19.80;99.90;;;;;;5045381;28;19913;-68
2023/02/14 11:30:41;;;;;;;;;;;19.80;99.90;;;;;;5030158;28;19913;-70
2023/02/14 11:33:30;;;;;;;;;;;19.90;99.90;;;;;;5043561;28;19962;-63
2023/02/14 11:35:57;;;;;;;;;;;19.80;99.90;;;;;;5019946;28;20361;-63
2023/02/14 11:38:38;;;;;;;;;;;19.80;99.90;;;;;;5049890;28;19916;-64
2023/02/14 11:41:09;;;;;;;;;;;19.90;99.90;;;;;;5051602;28;20004;-70
2023/02/14 11:43:40;;;;;;;;;;;19.90;99.90;;;;;;5046477;28;19950;-65
2023/02/14 11:46:12;;;;;;;;;;;19.90;99.90;;;;;;5052530;28;19951;-65
2023/02/14 11:48:38;;;;;;;;;;;19.90;99.90;;;;;;5051203;28;20003;-66
2023/02/14 11:51:09;;;;;;;;;;;19.90;99.90;;;;;;5048666;28;19954;-70
2023/02/14 11:53:39;;;;;;;;;;;19.80;99.90;;;;;;5051075;28;19913;-68
2023/02/14 11:56:05;;;;;;;;;;;19.90;99.90;;;;;;5042363;28;20341;-63
2023/02/14 11:58:37;;;;;;;;;;;19.90;99.90;;;;;;5048163;28;20340;-68
2023/02/14 12:01:03;;;;;;;;;;;19.80;99.90;;;;;;5047025;28;20039;-63
2023/02/14 12:03:37;;;;;;;;;;;19.70;99.90;;;;;;5049389;28;19909;-67
2023/02/14 12:06:03;;;;;;;;;;;19.70;99.90;;;;;;5051968;28;20280;-68
2023/02/14 12:08:30;;;;;;;;;;;19.70;99.90;;;;;;5045429;28;19908;-63
2023/02/14 12:11:27;;;;;;;;;;;19.80;99.90;;;;;;5052832;28;20286;-63
2023/02/14 12:13:55;;;;;;;;;;;19.70;99.90;;;;;;4955918;28;20460;-63
2023/02/14 12:16:47;;;;;;;;;;;19.80;99.90;;;;;;4951109;28;19914;-67
2023/02/14 12:19:19;;;;;;;;;;;19.90;99.90;;;;;;4969677;28;19910;-69
2023/02/14 12:22:11;;;;;;;;;;;19.90;99.90;;;;;;4968723;28;19914;-68
2023/02/14 12:24:40;;;;;;;;;;;19.90;99.90;;;;;;4961034;28;20382;-63
2023/02/14 12:27:07;;;;;;;;;;;19.90;99.90;;;;;;4969457;28;19920;-69
2023/02/14 12:29:38;;;;;;;;;;;19.80;99.90;;;;;;4969364;28;19914;-68
2023/02/14 12:32:19;;;;;;;;;;;19.70;99.90;;;;;;4969069;28;20370;-68
2023/02/14 12:34:45;;;;;;;;;;;19.70;99.90;;;;;;4969244;28;19910;-67
2023/02/14 12:37:20;;;;;;;;;;;19.80;99.90;;;;;;4967585;28;20493;-68
2023/02/14 12:39:47;;;;;;;;;;;19.80;99.90;;;;;;4968462;28;20408;-67
2023/02/14 12:42:31;;;;;;;;;;;19.70;99.90;;;;;;4968001;28;19914;-61
2023/02/14 12:45:15;;;;;;;;;;;19.60;99.90;;;;;;4966961;28;19910;-62
2023/02/14 12:48:00;;;;;;;;;;;19.70;99.90;;;;;;4968705;28;20418;-61
2023/02/14 12:50:30;;;;;;;;;;;19.70;99.90;;;;;;4986267;28;19917;-61
2023/02/14 12:53:13;;;;;;;;;;;19.60;99.90;;;;;;5010077;28;19964;-67
2023/02/14 12:55:49;;;;;;;;;;;19.50;99.90;;;;;;5023554;28;19913;-68
2023/02/14 12:58:15;;;;;;;;;;;19.50;99.90;;;;;;5051536;28;19912;-62
2023/02/14 13:00:51;;;;;;;;;;;19.50;99.90;;;;;;5044459;28;19959;-68
2023/02/14 13:03:29;;;;;;;;;;;19.50;99.90;;;;;;5044019;28;19909;-62
2023/02/14 13:06:14;;;;;;;;;;;19.40;99.90;;;;;;5049679;28;20022;-67
2023/02/14 13:09:01;;;;;;;;;;;19.20;99.90;;;;;;5039585;28;20312;-62
2023/02/14 13:11:40;;;;;;;;;;;19.00;99.90;;;;;;5051471;28;19908;-62
2023/02/14 13:14:12;;;;;;;;;;;18.90;99.90;;;;;;5049108;28;19909;-62
2023/02/14 13:16:45;;;;;;;;;;;18.70;99.90;;;;;;5050202;28;19916;-69
2023/02/14 13:19:11;;;;;;;;;;;18.60;99.90;;;;;;5051752;28;19920;-68
2023/02/14 13:21:39;;;;;;;;;;;18.50;99.90;;;;;;5058196;28;20278;-61
2023/02/14 13:24:26;;;;;;;;;;;18.40;99.90;;;;;;5051330;28;19912;-61
2023/02/14 13:26:54;;;;;;;;;;;18.30;99.90;;;;;;5047641;28;20479;-62
2023/02/14 13:29:22;;;;;;;;;;;18.30;99.90;;;;;;5047854;28;20380;-68
2023/02/14 13:31:50;;;;;;;;;;;18.20;99.90;;;;;;5048379;28;19923;-68
2023/02/14 13:34:20;;;;;;;;;;;18.20;99.90;;;;;;5035735;28;20387;-67
2023/02/14 13:36:47;;;;;;;;;;;18.20;99.90;;;;;;5049877;28;19913;-61
2023/02/14 13:39:20;;;;;;;;;;;18.20;99.90;;;;;;5047157;28;19991;-68
2023/02/14 13:41:47;;;;;;;;;;;18.20;99.90;;;;;;5051436;28;20003;-67
2023/02/14 13:44:33;;;;;;;;;;;18.20;99.90;;;;;;5052580;28;19909;-61
2023/02/14 13:46:59;;;;;;;;;;;18.30;99.90;;;;;;5051141;28;20316;-66
2023/02/14 13:49:28;;;;;;;;;;;18.40;99.90;;;;;;5052319;28;19908;-67
2023/02/14 13:51:57;;;;;;;;;;;18.50;99.90;;;;;;5042180;28;19920;-61
2023/02/14 13:54:32;;;;;;;;;;;18.40;99.90;;;;;;5052265;28;19909;-69
2023/02/14 13:57:02;;;;;;;;;;;18.40;99.90;;;;;;5047439;28;20497;-64
2023/02/14 13:59:33;;;;;;;;;;;18.30;99.90;;;;;;5036483;28;19924;-65
2023/02/14 14:02:22;;;;;;;;;;;18.30;99.90;;;;;;5042399;28;20043;-65
2023/02/14 14:04:49;;;;;;;;;;;18.30;99.90;;;;;;5038565;28;19935;-70
2023/02/14 14:07:17;;;;;;;;;;;18.30;99.90;;;;;;5055102;28;19916;-65
2023/02/14 14:09:44;;;;;;;;;;;18.30;99.90;;;;;;5050536;28;20006;-70
2023/02/14 14:12:26;;;;;;;;;;;18.20;99.90;;;;;;5051323;28;19905;-65
2023/02/14 14:15:04;;;;;;;;;;;18.20;99.90;;;;;;5065253;28;19952;-73
2023/02/14 14:17:39;;;;;;;;;;;18.10;99.90;;;;;;5049215;28;19919;-66
2023/02/14 14:20:20;;;;;;;;;;;18.10;99.90;;;;;;5049714;28;19920;-70
2023/02/14 14:22:48;;;;;;;;;;;18.00;99.90;;;;;;5043682;28;19910;-71
2023/02/14 14:25:28;;;;;;;;;;;18.00;99.90;;;;;;5051563;28;19991;-72
2023/02/14 14:27:55;;;;;;;;;;;17.90;99.90;;;;;;5052137;28;19908;-71
2023/02/14 14:30:27;;;;;;;;;;;17.90;99.90;;;;;;5052748;28;19909;-72
2023/02/14 14:32:53;;;;;;;;;;;17.80;99.90;;;;;;5051296;28;19912;-66
2023/02/14 14:35:21;;;;;;;;;;;17.70;99.90;;;;;;5051542;28;19912;-71
2023/02/14 14:37:51;;;;;;;;;;;17.70;99.90;;;;;;5047334;28;19983;-66
2023/02/14 14:40:19;;;;;;;;;;;17.70;99.90;;;;;;5050761;28;19904;-66
2023/02/14 14:42:47;;;;;;;;;;;17.70;99.90;;;;;;5048254;28;20281;-66
2023/02/14 14:45:19;;;;;;;;;;;17.70;99.90;;;;;;5051393;28;19917;-66
2023/02/14 14:47:46;;;;;;;;;;;17.90;99.90;;;;;;5050466;28;19912;-67
2023/02/14 14:50:19;;;;;;;;;;;17.80;99.90;;;;;;5052361;28;19912;-71
2023/02/14 14:52:47;;;;;;;;;;;17.90;99.90;;;;;;5048892;28;19909;-67